Time;durP1;ratioP1;P1;durP2;ratioP2;P2;SDS_P1;SDS_P2;PMS_P1;PMS_P2;Temp;Humidity;BMP_temperature;BMP_pressure;BME280_temperature;BME280_humidity;BME280_pressure;Samples;Min_cycle;Max_cycle;Signal;HPM_P1;HPM_P2
2022/07/07 00:01:39;;;;;;;;;1.00;1.00;;;;;23.67;64.36;102208.63;5030450;28;47637;-73
2022/07/07 00:04:05;;;;;;;;;1.00;1.00;;;;;23.68;64.89;102205.00;5016915;28;45535;-73
2022/07/07 00:06:31;;;;;;;;;1.00;1.00;;;;;23.67;64.92;102200.53;5030886;28;47361;-74
2022/07/07 00:08:57;;;;;;;;;2.00;1.00;;;;;23.64;65.05;102203.28;5014425;28;45549;-73
2022/07/07 00:11:23;;;;;;;;;1.00;1.00;;;;;23.57;65.48;102201.59;5034751;28;45360;-73
2022/07/07 00:13:49;;;;;;;;;1.67;1.67;;;;;23.51;65.91;102203.50;5034115;28;45451;-73
2022/07/07 00:16:15;;;;;;;;;1.00;1.00;;;;;23.50;66.11;102207.13;5031144;28;46395;-72
2022/07/07 00:18:40;;;;;;;;;2.00;1.00;;;;;23.47;65.91;102204.47;5035056;28;45870;-73
2022/07/07 00:21:06;;;;;;;;;3.00;2.00;;;;;23.45;67.09;102202.75;5034059;28;46324;-72
2022/07/07 00:23:31;;;;;;;;;1.00;1.00;;;;;23.40;67.73;102210.06;5016773;28;45827;-73
2022/07/07 00:25:57;;;;;;;;;2.00;2.00;;;;;23.32;68.21;102206.59;5034104;28;45525;-72
2022/07/07 00:28:22;;;;;;;;;4.00;1.00;;;;;23.24;68.86;102217.56;5015721;28;50073;-73
2022/07/07 00:30:47;;;;;;;;;3.00;1.67;;;;;23.15;69.06;102212.34;5030429;28;60665;-72
2022/07/07 00:33:13;;;;;;;;;1.00;1.00;;;;;23.09;68.73;102215.16;5033859;28;45526;-72
2022/07/07 00:35:38;;;;;;;;;1.00;1.00;;;;;23.07;68.80;102203.53;5030765;28;46483;-72
2022/07/07 00:38:04;;;;;;;;;2.00;2.00;;;;;23.05;69.66;102205.34;5033193;28;64586;-73
2022/07/07 00:40:29;;;;;;;;;0.67;0.00;;;;;23.06;69.55;102189.13;5034152;28;45589;-73
2022/07/07 00:42:54;;;;;;;;;2.67;2.67;;;;;23.03;70.43;102186.53;5033565;28;54274;-72
2022/07/07 00:45:20;;;;;;;;;2.00;1.00;;;;;22.98;70.33;102188.41;5033569;28;62709;-72
2022/07/07 00:47:46;;;;;;;;;1.00;1.00;;;;;22.94;71.46;102182.19;5033568;28;66697;-73
2022/07/07 00:50:12;;;;;;;;;2.67;1.33;;;;;22.89;70.82;102178.69;5032516;28;59403;-73
2022/07/07 00:52:37;;;;;;;;;1.00;1.00;;;;;22.86;71.27;102170.66;5035311;28;45942;-73
2022/07/07 00:55:03;;;;;;;;;2.00;2.00;;;;;22.86;71.26;102184.13;5033924;28;45583;-72
2022/07/07 00:57:29;;;;;;;;;1.00;1.00;;;;;22.84;71.31;102171.56;5033613;28;45455;-73
2022/07/07 00:59:57;;;;;;;;;2.00;2.00;;;;;22.83;71.68;102167.13;5032451;28;54639;-73
2022/07/07 01:02:23;;;;;;;;;2.00;2.00;;;;;22.81;72.30;102164.47;5033820;28;45620;-72
2022/07/07 01:04:48;;;;;;;;;3.33;3.00;;;;;22.78;72.81;102158.22;5033843;28;46431;-73
2022/07/07 01:07:14;;;;;;;;;4.00;2.00;;;;;22.73;73.07;102161.00;5033294;28;45803;-72
2022/07/07 01:09:41;;;;;;;;;2.00;2.00;;;;;;;;5016020;28;45495;-72
2022/07/07 01:12:06;;;;;;;;;2.00;2.00;;;;;22.63;73.29;102156.69;5034207;28;47122;-72
2022/07/07 01:14:32;;;;;;;;;3.00;2.00;;;;;22.59;73.72;102155.88;5032338;28;68776;-72
2022/07/07 01:16:57;;;;;;;;;3.00;2.00;;;;;22.57;73.89;102163.06;5033279;28;45519;-72
2022/07/07 01:19:23;;;;;;;;;4.00;2.00;;;;;22.57;73.95;102157.69;5032402;28;55813;-72
2022/07/07 01:21:54;;;;;;;;;3.00;3.00;;;;;22.60;74.56;102159.47;5033561;28;45363;-72
2022/07/07 01:24:22;;;;;;;;;2.00;2.00;;;;;22.59;74.76;102158.56;5033050;28;47406;-72
2022/07/07 01:26:47;;;;;;;;;2.00;1.00;;;;;22.57;74.55;102160.38;5033136;28;45583;-73
2022/07/07 01:29:12;;;;;;;;;1.33;1.33;;;;;22.55;75.06;102164.03;5029136;28;45449;-73
2022/07/07 01:31:38;;;;;;;;;2.33;2.33;;;;;22.55;75.24;102161.34;5033874;28;45373;-73
2022/07/07 01:34:03;;;;;;;;;1.00;1.00;;;;;22.51;75.21;102157.81;5032959;28;46619;-73
2022/07/07 01:36:28;;;;;;;;;2.00;2.00;;;;;22.52;75.30;102158.69;5010791;28;45443;-73
2022/07/07 01:38:54;;;;;;;;;2.00;2.00;;;;;22.51;76.14;102151.53;5032444;28;60404;-73
2022/07/07 01:41:19;;;;;;;;;2.00;2.00;;;;;22.48;76.57;102152.50;5033303;28;45948;-72
2022/07/07 01:43:44;;;;;;;;;2.00;2.00;;;;;22.42;76.62;102150.78;5031801;28;71276;-73
2022/07/07 01:46:10;;;;;;;;;2.00;2.00;;;;;22.36;76.93;102156.25;5032260;28;62717;-72
2022/07/07 01:48:35;;;;;;;;;4.33;3.00;;;;;22.30;77.43;102147.41;5031866;28;63666;-73
2022/07/07 01:51:00;;;;;;;;;2.00;2.00;;;;;22.28;77.41;102149.25;5031037;28;45519;-73
2022/07/07 01:53:26;;;;;;;;;3.00;3.00;;;;;22.26;77.35;102146.56;5026160;28;71162;-72
2022/07/07 01:55:51;;;;;;;;;3.00;3.00;;;;;22.22;77.60;102140.38;5026901;28;64092;-73
2022/07/07 01:58:16;;;;;;;;;5.33;2.33;;;;;22.22;77.74;102142.16;5032312;28;58246;-73
2022/07/07 02:00:42;;;;;;;;;2.00;2.00;;;;;22.19;78.52;102139.50;5033186;28;45499;-73
2022/07/07 02:03:07;;;;;;;;;3.33;2.00;;;;;22.16;78.66;102135.09;5030203;28;45742;-73
2022/07/07 02:05:32;;;;;;;;;3.00;3.00;;;;;22.16;78.75;102131.50;5032492;28;45389;-72
2022/07/07 02:07:58;;;;;;;;;2.00;2.00;;;;;22.15;78.90;102127.91;5032169;28;52455;-72
2022/07/07 02:13:07;;;;;;;;;2.33;2.33;;;;;22.09;79.22;102129.78;5028900;28;45877;-71
2022/07/07 02:15:32;;;;;;;;;2.00;2.00;;;;;22.06;79.29;102117.28;5029635;28;69254;-71
2022/07/07 02:17:58;;;;;;;;;3.00;3.00;;;;;22.05;79.74;102125.34;5032751;28;45957;-73
2022/07/07 02:20:24;;;;;;;;;1.00;1.00;;;;;22.03;79.90;102128.06;5032396;28;45550;-72
2022/07/07 02:22:49;;;;;;;;;2.67;1.00;;;;;22.02;79.77;102122.72;5032812;28;46210;-72
2022/07/07 02:25:15;;;;;;;;;3.00;3.00;;;;;22.00;80.19;102129.91;5032258;28;47771;-72
2022/07/07 02:27:40;;;;;;;;;2.00;2.00;;;;;21.97;80.56;102133.56;5031489;28;45946;-72
2022/07/07 02:30:07;;;;;;;;;2.00;2.00;;;;;21.92;80.73;102128.25;5031453;28;65248;-72
2022/07/07 02:32:32;;;;;;;;;2.33;2.33;;;;;21.88;80.96;102129.19;5031616;28;46493;-73
2022/07/07 02:34:58;;;;;;;;;2.00;2.00;;;;;21.87;81.48;102130.13;5029020;28;45397;-72
2022/07/07 02:37:27;;;;;;;;;2.33;2.33;;;;;21.86;81.34;102131.03;5030142;28;45322;-73
2022/07/07 02:39:52;;;;;;;;;2.00;2.00;;;;;21.86;81.60;102130.16;5032650;28;45521;-73
2022/07/07 02:42:18;;;;;;;;;3.33;2.00;;;;;21.82;81.43;102123.91;5031356;28;66364;-72
2022/07/07 02:44:43;;;;;;;;;2.33;2.33;;;;;21.80;81.84;102131.13;5030463;28;67383;-73
2022/07/07 02:47:08;;;;;;;;;3.00;3.00;;;;;21.78;82.62;102129.34;5031559;28;58280;-73
2022/07/07 02:49:34;;;;;;;;;3.00;3.00;;;;;21.72;82.80;102124.97;5032094;28;55418;-72
2022/07/07 02:51:59;;;;;;;;;3.00;3.00;;;;;21.71;83.20;102123.19;5032398;28;46357;-72
2022/07/07 02:54:25;;;;;;;;;2.00;2.00;;;;;21.70;83.46;102129.47;5031373;28;45496;-73
2022/07/07 02:56:50;;;;;;;;;3.67;3.00;;;;;21.66;83.67;102130.44;5031249;28;62357;-72
2022/07/07 02:59:15;;;;;;;;;3.00;3.00;;;;;21.63;84.48;102139.44;5031531;28;45501;-72
2022/07/07 03:01:41;;;;;;;;;3.33;1.67;;;;;21.54;84.60;102128.81;5032194;28;47485;-72
2022/07/07 03:04:06;;;;;;;;;3.00;3.00;;;;;21.51;84.52;102128.84;5030867;28;61292;-72
2022/07/07 03:06:32;;;;;;;;;2.00;2.00;;;;;21.47;85.14;102120.88;5031168;28;53503;-73
2022/07/07 03:08:57;;;;;;;;;5.33;3.67;;;;;21.42;85.12;102118.25;5032513;28;45389;-72
2022/07/07 03:11:22;;;;;;;;;3.00;3.00;;;;;21.38;85.84;102122.75;5031534;28;60465;-73
2022/07/07 03:13:48;;;;;;;;;2.00;2.00;;;;;21.34;86.11;102115.63;5030892;28;68266;-72
2022/07/07 03:16:13;;;;;;;;;2.00;2.00;;;;;21.31;86.45;102115.69;5026495;28;55519;-73
2022/07/07 03:18:38;;;;;;;;;3.33;3.33;;;;;21.29;86.93;102122.84;5031943;28;48406;-73
2022/07/07 03:21:03;;;;;;;;;3.67;3.67;;;;;21.24;86.89;102127.38;5031792;28;47374;-72
2022/07/07 03:23:29;;;;;;;;;2.33;2.33;;;;;21.21;87.24;102118.47;5029856;28;63332;-72
2022/07/07 03:25:54;;;;;;;;;2.67;2.67;;;;;21.18;87.14;102114.03;5030970;28;45415;-74
2022/07/07 03:28:20;;;;;;;;;4.67;3.00;;;;;21.15;89.29;102116.75;5030925;28;58628;-72
2022/07/07 03:30:46;;;;;;;;;4.00;4.00;;;;;21.11;88.20;102121.28;5029006;28;47399;-72
2022/07/07 03:33:11;;;;;;;;;3.33;3.33;;;;;21.03;88.61;102109.72;5004828;28;45417;-71
2022/07/07 03:35:38;;;;;;;;;3.00;3.00;;;;;21.04;90.55;102115.97;5027872;28;58870;-73
2022/07/07 03:38:03;;;;;;;;;5.00;4.00;;;;;21.01;89.64;102118.72;5031818;28;46066;-73
2022/07/07 03:40:29;;;;;;;;;6.33;3.33;;;;;21.00;89.81;102114.25;5031176;28;46639;-72
2022/07/07 03:42:54;;;;;;;;;5.33;3.33;;;;;20.99;89.80;102109.81;5031906;28;45683;-73
2022/07/07 03:45:19;;;;;;;;;3.33;3.33;;;;;20.97;90.09;102109.78;5033588;28;59229;-73
2022/07/07 03:47:45;;;;;;;;;3.33;3.00;;;;;20.96;90.03;102107.13;5035127;28;45619;-72
2022/07/07 03:50:10;;;;;;;;;3.00;3.00;;;;;20.98;90.79;102113.38;5034754;28;51926;-73
2022/07/07 03:52:35;;;;;;;;;3.33;3.00;;;;;20.96;90.72;102109.81;5034064;28;63551;-72
2022/07/07 03:55:01;;;;;;;;;3.67;3.00;;;;;20.96;90.26;102099.97;5034299;28;59907;-73
2022/07/07 03:57:26;;;;;;;;;4.00;2.00;;;;;20.99;90.81;102102.63;5034035;28;51922;-73
2022/07/07 03:59:51;;;;;;;;;3.00;3.00;;;;;20.99;90.83;102101.75;5034595;28;59375;-72
2022/07/07 04:02:17;;;;;;;;;4.00;2.67;;;;;21.01;90.65;102105.28;5034193;28;62963;-72
2022/07/07 04:04:42;;;;;;;;;3.00;3.00;;;;;21.04;91.18;102105.22;5034347;28;45442;-73
2022/07/07 04:07:08;;;;;;;;;3.67;3.00;;;;;21.06;90.50;102098.06;5034798;28;45517;-73
2022/07/07 04:09:33;;;;;;;;;3.00;3.00;;;;;21.06;91.28;102103.44;5034634;28;46509;-73
2022/07/07 04:11:58;;;;;;;;;5.00;4.00;;;;;21.06;90.84;102108.81;5034161;28;67496;-72
2022/07/07 04:14:24;;;;;;;;;3.00;3.00;;;;;21.05;91.48;102101.66;5033703;28;45509;-73
2022/07/07 04:16:49;;;;;;;;;4.33;4.33;;;;;21.07;91.43;102113.28;5034249;28;46105;-72
2022/07/07 04:19:14;;;;;;;;;4.67;2.67;;;;;21.09;91.35;102107.00;5033926;28;64785;-73
2022/07/07 04:21:40;;;;;;;;;5.67;3.33;;;;;21.09;91.55;102101.63;5034603;28;45396;-72
2022/07/07 04:24:05;;;;;;;;;6.67;4.33;;;;;21.08;91.55;102105.19;5033905;28;58159;-73
2022/07/07 04:26:31;;;;;;;;;6.00;3.00;;;;;21.06;91.58;102098.94;5034213;28;45574;-72
2022/07/07 04:28:56;;;;;;;;;5.00;3.00;;;;;21.03;91.33;102092.72;5034022;28;46676;-72
2022/07/07 04:31:21;;;;;;;;;3.67;3.33;;;;;21.03;91.60;102098.09;5034327;28;47816;-72
2022/07/07 04:33:46;;;;;;;;;6.00;3.33;;;;;21.02;92.52;102096.31;5026909;28;59393;-73
2022/07/07 04:36:14;;;;;;;;;3.00;3.00;;;;;20.99;92.83;102091.00;5033068;28;59780;-73
2022/07/07 04:38:39;;;;;;;;;3.00;3.00;;;;;21.00;93.19;102098.16;5033927;28;46306;-72
2022/07/07 04:41:05;;;;;;;;;6.00;3.00;;;;;20.98;92.90;102108.88;5034884;28;45404;-72
2022/07/07 04:43:30;;;;;;;;;4.67;3.00;;;;;20.99;93.19;102107.13;5009082;28;45609;-73
2022/07/07 04:45:55;;;;;;;;;4.00;2.67;;;;;20.96;93.36;102118.78;5033135;28;57500;-72
2022/07/07 04:48:21;;;;;;;;;3.00;3.00;;;;;21.01;93.29;102126.78;5033634;28;63176;-73
2022/07/07 04:50:46;;;;;;;;;6.00;3.00;;;;;21.05;93.18;102134.78;5033094;28;63149;-72
2022/07/07 04:53:11;;;;;;;;;5.00;4.00;;;;;21.06;93.48;102130.28;5033680;28;46039;-72
2022/07/07 04:55:37;;;;;;;;;4.00;2.67;;;;;21.08;93.77;102129.34;5149026;22;45435;-72
2022/07/07 04:58:02;;;;;;;;;2.00;2.00;;;;;21.09;94.82;102131.16;5074655;28;46707;-72
2022/07/07 05:00:27;;;;;;;;;3.33;3.33;;;;;21.12;94.57;102130.22;5074384;28;57854;-72
2022/07/07 05:02:53;;;;;;;;;3.00;3.00;;;;;21.15;94.17;102138.25;5074102;27;62281;-73
2022/07/07 05:05:18;;;;;;;;;4.00;4.00;;;;;21.18;94.18;102130.13;5074577;28;45771;-73
2022/07/07 05:07:44;;;;;;;;;5.33;3.67;;;;;21.23;95.04;102144.41;5075246;28;46621;-73
2022/07/07 05:10:10;;;;;;;;;3.33;3.33;;;;;21.24;94.85;102137.22;5074382;28;46178;-73
2022/07/07 05:12:35;;;;;;;;;5.00;4.00;;;;;21.28;94.61;102139.88;5075171;28;45445;-72
2022/07/07 05:15:01;;;;;;;;;5.00;3.00;;;;;21.32;94.74;102138.97;5055776;28;52774;-73
2022/07/07 05:17:26;;;;;;;;;3.00;3.00;;;;;21.33;95.18;102132.66;5073615;28;71087;-72
2022/07/07 05:19:51;;;;;;;;;4.00;4.00;;;;;21.33;95.51;102140.72;5069347;28;45437;-72
2022/07/07 05:22:17;;;;;;;;;3.67;3.67;;;;;21.34;95.64;102139.81;5073602;28;61639;-73
2022/07/07 05:24:42;;;;;;;;;5.00;3.00;;;;;21.35;97.05;102133.53;5072903;28;63720;-73
2022/07/07 05:27:07;;;;;;;;;5.67;2.67;;;;;21.33;97.31;102135.34;5072022;27;70666;-77
2022/07/07 05:29:33;;;;;;;;;3.00;3.00;;;;;21.31;96.60;102147.06;5072120;27;63751;-78
2022/07/07 05:31:58;;;;;;;;;3.00;3.00;;;;;21.31;96.61;102147.06;5075376;27;46077;-77
2022/07/07 05:34:23;;;;;;;;;4.33;3.67;;;;;21.36;96.52;102140.72;5055698;27;63371;-78
2022/07/07 05:36:49;;;;;;;;;5.00;3.33;;;;;21.39;96.79;102146.03;5074185;27;68480;-79
2022/07/07 05:39:14;;;;;;;;;6.67;4.33;;;;;21.45;96.65;102147.75;5073364;28;60203;-77
2022/07/07 05:41:42;;;;;;;;;7.00;4.33;;;;;21.47;96.64;102145.06;5072515;28;48902;-77
2022/07/07 05:44:08;;;;;;;;;4.00;4.00;;;;;21.47;97.34;102140.56;5072517;28;56520;-79
2022/07/07 05:46:34;;;;;;;;;4.67;4.00;;;;;21.46;97.32;102149.50;5055059;28;46337;-76
2022/07/07 05:48:59;;;;;;;;;2.00;2.00;;;;;21.46;97.82;102152.19;5072856;27;67608;-76
2022/07/07 05:51:24;;;;;;;;;4.00;4.00;;;;;21.48;97.50;102145.03;5073122;28;64978;-78
2022/07/07 05:53:50;;;;;;;;;4.00;4.00;;;;;21.52;97.39;102148.53;5073244;28;45560;-77
2022/07/07 05:56:15;;;;;;;;;5.00;3.00;;;;;21.54;97.92;102150.31;5077449;27;46088;-76
2022/07/07 05:58:41;;;;;;;;;8.33;4.00;;;;;21.54;97.75;102149.44;5073083;27;62556;-79
2022/07/07 06:01:07;;;;;;;;;3.00;3.00;;;;;21.57;97.72;102154.75;5073060;28;45545;-78
2022/07/07 06:03:32;;;;;;;;;4.00;4.00;;;;;21.62;98.29;102161.84;5073590;28;45572;-79
2022/07/07 06:05:57;;;;;;;;;4.33;3.67;;;;;21.64;99.13;102154.66;5075113;28;65456;-77
2022/07/07 06:08:23;;;;;;;;;4.00;3.00;;;;;21.57;98.53;102166.41;5074043;28;63906;-77
2022/07/07 06:10:48;;;;;;;;;5.00;3.00;;;;;21.48;99.89;102171.91;5075781;28;52033;-76
2022/07/07 06:13:14;;;;;;;;;4.00;4.00;;;;;21.37;99.96;102169.34;5072933;28;56665;-76
2022/07/07 06:15:39;;;;;;;;;6.00;4.00;;;;;21.32;100.00;102179.25;5072451;28;54871;-76
2022/07/07 06:18:05;;;;;;;;;3.33;3.33;;;;;21.30;100.00;102186.44;5076470;28;60995;-76
2022/07/07 06:20:31;;;;;;;;;2.00;2.00;;;;;21.24;100.00;102180.22;5077197;28;45497;-76
2022/07/07 06:22:57;;;;;;;;;3.33;3.33;;;;;21.23;100.00;102187.38;5078763;27;45536;-76
2022/07/07 06:25:22;;;;;;;;;4.00;4.00;;;;;21.23;100.00;102192.75;5076764;28;46952;-76
2022/07/07 06:27:48;;;;;;;;;6.00;3.00;;;;;21.23;100.00;102195.44;5076777;28;45469;-75
2022/07/07 06:30:13;;;;;;;;;3.00;3.00;;;;;21.23;100.00;102197.25;5074813;28;46979;-77
2022/07/07 06:32:38;;;;;;;;;4.00;4.00;;;;;21.19;100.00;102204.44;5075383;28;46761;-77
2022/07/07 06:35:05;;;;;;;;;4.67;3.33;;;;;21.18;100.00;102206.25;5073472;28;64884;-77
2022/07/07 06:37:30;;;;;;;;;4.00;3.00;;;;;21.10;100.00;102209.94;5075730;28;45389;-77
2022/07/07 06:39:56;;;;;;;;;2.67;2.67;;;;;21.07;100.00;102205.47;5075873;27;45453;-77
2022/07/07 06:42:24;;;;;;;;;4.67;3.67;;;;;21.08;100.00;102201.88;5074719;27;53115;-76
2022/07/07 06:44:49;;;;;;;;;3.00;3.00;;;;;21.11;100.00;102203.66;5058842;28;63831;-76
2022/07/07 06:47:15;;;;;;;;;3.33;2.00;;;;;21.15;100.00;102208.97;5072290;28;45600;-76
2022/07/07 06:49:40;;;;;;;;;3.00;3.00;;;;;21.17;100.00;102207.16;5071207;28;45526;-77
2022/07/07 06:52:05;;;;;;;;;2.67;2.67;;;;;21.23;100.00;102202.63;5072157;28;45487;-77
2022/07/07 06:54:31;;;;;;;;;6.00;3.00;;;;;21.31;100.00;102208.84;5074224;28;47418;-77
2022/07/07 06:56:56;;;;;;;;;3.00;3.00;;;;;21.38;100.00;102202.47;5073330;27;68807;-77
2022/07/07 06:59:22;;;;;;;;;5.33;3.00;;;;;21.49;100.00;102200.56;5072525;28;64460;-77
2022/07/07 07:01:47;;;;;;;;;6.00;3.00;;;;;21.58;100.00;102199.56;5071282;28;45601;-77
2022/07/07 07:04:13;;;;;;;;;4.67;3.00;;;;;21.64;100.00;102194.09;5072913;28;66187;-77
2022/07/07 07:06:42;;;;;;;;;2.00;2.00;;;;;21.70;100.00;102202.97;5075110;28;45729;-77
2022/07/07 07:09:08;;;;;;;;;2.00;2.00;;;;;21.80;100.00;102202.84;5074404;28;45284;-77
2022/07/07 07:11:34;;;;;;;;;3.00;3.00;;;;;21.86;100.00;102206.34;5075565;28;45295;-77
2022/07/07 07:14:01;;;;;;;;;2.00;2.00;;;;;21.90;100.00;102209.88;5073497;28;73089;-77
2022/07/07 07:16:26;;;;;;;;;4.00;2.00;;;;;21.95;100.00;102211.59;5074384;27;45537;-77
2022/07/07 07:18:52;;;;;;;;;3.00;3.00;;;;;22.00;100.00;102221.38;5067237;28;62242;-77
2022/07/07 07:21:17;;;;;;;;;2.00;2.00;;;;;22.07;100.00;102229.34;5073774;27;57957;-77
2022/07/07 07:23:43;;;;;;;;;4.00;1.33;;;;;22.15;100.00;102223.88;5074747;28;56055;-77
2022/07/07 07:26:08;;;;;;;;;6.00;2.00;;;;;22.23;100.00;102225.53;5073905;28;45415;-77
2022/07/07 07:28:34;;;;;;;;;2.33;2.33;;;;;22.30;100.00;102231.72;5073718;28;45511;-78
2022/07/07 07:31:00;;;;;;;;;4.33;3.00;;;;;22.38;100.00;102231.63;5072841;27;45503;-76
2022/07/07 07:33:26;;;;;;;;;2.00;2.00;;;;;22.39;100.00;102233.38;5073758;28;46527;-78
2022/07/07 07:35:51;;;;;;;;;2.67;1.67;;;;;22.37;100.00;102240.56;5071802;28;45532;-77
2022/07/07 07:38:16;;;;;;;;;5.00;3.00;;;;;22.30;100.00;102246.97;5074165;28;45211;-77
2022/07/07 07:40:42;;;;;;;;;2.00;2.00;;;;;22.21;100.00;102253.38;5073616;28;45698;-77
2022/07/07 07:43:07;;;;;;;;;3.00;2.00;;;;;22.19;100.00;102247.13;5074447;28;68674;-78
2022/07/07 07:45:33;;;;;;;;;3.00;2.00;;;;;22.13;100.00;102240.03;5073346;28;45509;-77
2022/07/07 07:48:01;;;;;;;;;2.00;2.00;;;;;22.12;100.00;102246.34;5074711;28;45424;-78
2022/07/07 07:50:27;;;;;;;;;2.33;2.00;;;;;22.14;100.00;102240.94;5074268;28;45448;-78
2022/07/07 07:52:52;;;;;;;;;4.00;2.67;;;;;22.14;100.00;102241.81;5073603;28;46328;-76
2022/07/07 07:55:19;;;;;;;;;3.00;2.00;;;;;22.17;100.00;102247.16;5073899;27;45425;-77
2022/07/07 07:57:45;;;;;;;;;2.00;2.00;;;;;22.19;100.00;102241.75;5073158;27;45376;-77
2022/07/07 08:00:12;;;;;;;;;3.00;1.67;;;;;22.23;100.00;102246.19;5073602;28;53649;-77
2022/07/07 08:02:39;;;;;;;;;3.00;3.00;;;;;22.31;100.00;102254.13;5071158;28;47600;-77
2022/07/07 08:05:05;;;;;;;;;1.00;1.00;;;;;22.46;100.00;102252.09;5074320;28;45352;-77
2022/07/07 08:07:32;;;;;;;;;2.00;2.00;;;;;22.62;99.92;102257.25;5075168;28;45374;-76
2022/07/07 08:09:58;;;;;;;;;3.00;2.00;;;;;22.75;99.13;102246.25;5073930;27;45366;-76
2022/07/07 08:12:23;;;;;;;;;2.00;2.00;;;;;22.93;98.78;102247.75;5073767;27;47443;-77
2022/07/07 08:14:49;;;;;;;;;1.00;1.00;;;;;23.07;98.22;102242.13;5073616;28;45457;-76
2022/07/07 08:17:14;;;;;;;;;3.00;2.00;;;;;23.17;97.18;102241.03;5073969;28;45732;-76
2022/07/07 08:19:39;;;;;;;;;1.00;1.00;;;;;23.24;96.02;102249.88;5074483;28;45283;-77
2022/07/07 08:22:05;;;;;;;;;0.33;0.33;;;;;23.24;95.54;102234.59;5071447;27;66069;-77
2022/07/07 08:24:30;;;;;;;;;1.00;1.00;;;;;23.30;94.72;102238.09;5073442;28;45528;-76
2022/07/07 08:26:55;;;;;;;;;6.33;4.00;;;;;23.37;94.33;102240.63;5069551;28;45270;-76
2022/07/07 08:29:21;;;;;;;;;3.67;1.00;;;;;23.41;93.68;102228.88;5074234;28;45786;-73
2022/07/07 08:31:46;;;;;;;;;2.00;2.00;;;;;23.39;93.25;102214.56;5075989;28;59350;-76
2022/07/07 08:34:12;;;;;;;;;1.00;0.00;;;;;23.40;93.58;102227.09;5076494;28;61743;-77
2022/07/07 08:36:37;;;;;;;;;1.33;1.00;;;;;23.46;93.49;102221.59;5076993;28;56514;-77
2022/07/07 08:39:03;;;;;;;;;3.00;1.00;;;;;23.59;93.33;102218.63;5075250;28;58657;-78
2022/07/07 08:41:29;;;;;;;;;1.00;1.00;;;;;23.67;92.29;102227.50;5077631;28;47458;-77
2022/07/07 08:43:55;;;;;;;;;2.33;1.00;;;;;23.70;92.03;102232.81;5057450;28;66919;-78
2022/07/07 08:46:21;;;;;;;;;1.00;1.00;;;;;23.75;91.38;102226.38;5077260;28;45486;-77
2022/07/07 08:48:46;;;;;;;;;1.67;1.00;;;;;23.87;90.79;102232.47;5077655;28;45556;-77
2022/07/07 08:51:12;;;;;;;;;1.00;1.00;;;;;23.96;88.90;102243.91;5076970;28;47466;-75
2022/07/07 08:53:37;;;;;;;;;1.00;1.00;;;;;24.02;89.07;102234.78;5058292;28;47703;-77
2022/07/07 08:56:05;;;;;;;;;0.33;0.33;;;;;24.12;87.82;102243.56;5074446;28;47155;-77
2022/07/07 08:58:31;;;;;;;;;1.00;1.00;;;;;24.15;87.07;102249.81;5074563;27;45627;-76
2022/07/07 09:00:56;;;;;;;;;1.67;1.67;;;;;24.23;87.45;102244.22;5076706;28;46251;-78
2022/07/07 09:03:22;;;;;;;;;1.00;0.00;;;;;24.39;87.69;102233.97;5076539;28;55988;-78
2022/07/07 09:05:48;;;;;;;;;1.00;1.00;;;;;24.53;86.78;102242.63;5075748;28;60453;-77
2022/07/07 09:08:21;;;;;;;;;0.00;0.00;;;;;24.66;85.26;102245.91;5076677;28;45708;-76
2022/07/07 09:10:47;;;;;;;;;0.33;0.33;;;;;24.68;85.19;102241.38;5073755;28;46746;-77
2022/07/07 09:13:25;;;;;;;;;0.67;0.00;;;;;24.71;84.86;102238.56;5076521;28;45624;-77
2022/07/07 09:15:52;;;;;;;;;0.33;0.33;;;;;24.72;83.50;102243.06;5073171;28;45529;-77
2022/07/07 09:18:34;;;;;;;;;4.67;1.00;;;;;24.63;84.13;102243.28;5076869;28;45517;-76
2022/07/07 09:21:01;;;;;;;;;1.00;1.00;;;;;24.60;84.32;102254.16;5075756;28;47338;-76
2022/07/07 09:23:27;;;;;;;;;1.00;1.00;;;;;24.56;83.97;102247.97;5075730;28;45480;-77
2022/07/07 09:25:52;;;;;;;;;1.00;1.00;;;;;24.54;84.02;102249.81;5073855;28;45603;-76
2022/07/07 09:28:18;;;;;;;;;1.00;0.00;;;;;24.59;84.39;102249.69;5076858;28;46595;-77
2022/07/07 09:30:48;;;;;;;;;2.00;1.00;;;;;24.67;84.25;102256.69;5075835;28;46742;-77
2022/07/07 09:33:21;;;;;;;;;0.33;0.33;;;;;24.74;84.29;102262.81;5075308;28;45572;-76
2022/07/07 09:38:32;;;;;;;;;1.67;1.00;;;;;24.76;84.19;102272.63;5076404;28;45509;-76
2022/07/07 09:41:08;;;;;;;;;2.00;1.00;;;;;24.73;83.66;102285.38;5074594;28;47413;-75
2022/07/07 09:43:53;;;;;;;;;1.00;1.00;;;;;24.54;83.40;102283.09;5075505;28;45584;-77
2022/07/07 09:46:20;;;;;;;;;1.00;1.00;;;;;24.43;83.51;102279.75;5075376;28;45418;-75
2022/07/07 09:48:49;;;;;;;;;3.33;1.67;;;;;24.36;83.64;102288.06;5076624;28;45500;-76
2022/07/07 09:51:25;;;;;;;;;3.00;1.00;;;;;24.29;84.57;102300.78;5075605;28;47689;-76
2022/07/07 09:53:53;;;;;;;;;0.00;0.00;;;;;24.19;84.36;102307.31;5076396;28;45413;-75
2022/07/07 09:56:22;;;;;;;;;2.00;1.00;;;;;24.07;84.73;102316.53;5075040;28;45465;-74
2022/07/07 09:58:48;;;;;;;;;0.67;0.33;;;;;23.96;84.86;102316.75;5077963;27;45492;-76
2022/07/07 10:01:13;;;;;;;;;1.00;1.00;;;;;23.90;85.51;102322.28;5058121;28;47480;-77
2022/07/07 10:03:40;;;;;;;;;1.33;1.33;;;;;23.79;84.97;102325.22;5058994;28;45731;-76
2022/07/07 10:06:06;;;;;;;;;1.00;1.00;;;;;23.73;84.73;102337.94;5057469;28;54690;-75
2022/07/07 10:08:33;;;;;;;;;1.00;1.00;;;;;23.64;84.87;102330.91;5076861;28;45271;-76
2022/07/07 10:11:00;;;;;;;;;1.00;1.00;;;;;23.64;84.84;102338.09;5058869;28;47175;-75
2022/07/07 10:13:29;;;;;;;;;2.00;0.00;;;;;23.66;84.52;102336.28;5058954;28;45593;-75
2022/07/07 10:15:54;;;;;;;;;1.33;0.00;;;;;23.73;84.97;102338.81;5076357;28;45608;-76
2022/07/07 10:18:20;;;;;;;;;1.00;1.00;;;;;23.81;85.09;102343.16;5058235;28;58752;-74
2022/07/07 10:20:46;;;;;;;;;1.33;1.33;;;;;23.81;84.72;102346.78;5058230;28;64324;-75
2022/07/07 10:23:11;;;;;;;;;3.00;1.00;;;;;23.79;84.67;102345.91;5058511;28;68924;-75
2022/07/07 10:25:37;;;;;;;;;1.00;1.00;;;;;23.85;84.75;102337.69;5076537;28;65217;-75
2022/07/07 10:28:02;;;;;;;;;4.33;2.00;;;;;23.95;84.92;102355.47;5059180;28;46026;-76
2022/07/07 10:30:30;;;;;;;;;3.33;2.00;;;;;24.07;84.66;102350.72;5077037;28;46767;-75
2022/07/07 10:32:57;;;;;;;;;2.00;2.00;;;;;24.17;84.45;102349.63;5076922;28;45351;-75
2022/07/07 10:35:23;;;;;;;;;1.33;1.00;;;;;24.29;84.18;102355.66;5076933;28;45351;-75
2022/07/07 10:37:49;;;;;;;;;2.00;2.00;;;;;24.47;84.08;102356.19;5077211;28;45269;-74
2022/07/07 10:40:41;;;;;;;;;3.00;1.00;;;;;24.63;82.97;102354.03;5058332;28;46704;-74
2022/07/07 10:43:34;;;;;;;;;1.00;1.00;;;;;24.70;82.90;102352.94;5064654;28;45357;-76
2022/07/07 10:46:02;;;;;;;;;4.00;1.00;;;;;24.68;81.67;102361.09;5053064;28;46355;-76
2022/07/07 10:48:45;;;;;;;;;3.00;2.00;;;;;24.63;81.84;102362.13;5073302;28;45295;-75
2022/07/07 10:51:17;;;;;;;;;8.33;8.00;;;;;24.59;81.48;102358.59;5074684;28;46485;-75
2022/07/07 10:54:04;;;;;;;;;6.00;6.00;;;;;24.49;81.32;102359.75;5075886;28;45411;-75
2022/07/07 10:56:51;;;;;;;;;5.00;5.00;;;;;24.39;81.47;102375.25;5066364;28;45216;-75
2022/07/07 10:59:20;;;;;;;;;3.00;3.00;;;;;24.32;81.29;102365.50;5076221;28;45454;-75
2022/07/07 11:02:01;;;;;;;;;2.67;2.67;;;;;24.36;82.33;102366.34;5075342;28;47091;-75
2022/07/07 11:04:41;;;;;;;;;5.00;2.00;;;;;24.50;81.96;102362.44;5071131;28;45501;-75
2022/07/07 11:07:12;;;;;;;;;9.67;6.67;;;;;24.76;82.29;102366.31;5074042;28;45480;-75
2022/07/07 11:10:11;;;;;;;;;2.00;2.00;;;;;24.94;81.62;102367.69;5056021;28;46115;-75
2022/07/07 11:12:45;;;;;;;;;3.67;1.33;;;;;24.96;81.42;102364.03;5064618;28;45849;-75
2022/07/07 11:15:28;;;;;;;;;2.00;2.00;;;;;24.93;81.21;102368.59;5069688;28;47358;-75
2022/07/07 11:17:55;;;;;;;;;1.67;1.67;;;;;24.86;81.58;102373.28;5074857;28;45493;-74
2022/07/07 11:20:26;;;;;;;;;1.33;1.33;;;;;24.79;81.05;102379.75;5073298;28;45453;-76
2022/07/07 11:22:54;;;;;;;;;6.00;3.00;;;;;24.78;81.52;102386.09;5074961;28;45449;-75
2022/07/07 11:25:24;;;;;;;;;1.67;1.67;;;;;24.84;81.34;102375.13;5074491;28;45341;-75
2022/07/07 11:27:50;;;;;;;;;5.33;3.00;;;;;24.93;80.99;102364.13;5056499;28;45419;-75